Time;durP1;ratioP1;P1;durP2;ratioP2;P2;SDS_P1;SDS_P2;PMS_P1;PMS_P2;Temp;Humidity;BMP_temperature;BMP_pressure;BME280_temperature;BME280_humidity;BME280_pressure;Samples;Min_cycle;Max_cycle;Signal;HPM_P1;HPM_P2
2022/07/02 00:01:49;;;;;;;5.80;2.60;;;16.10;74.00;;;;;;5096119;28;20016;-40
2022/07/02 00:04:18;;;;;;;6.95;2.40;;;16.10;74.10;;;;;;5096007;28;20103;-40
2022/07/02 00:06:45;;;;;;;5.65;2.50;;;16.10;74.30;;;;;;5095113;28;20053;-39
2022/07/02 00:09:12;;;;;;;5.70;2.78;;;16.00;74.40;;;;;;5095984;28;20380;-40
2022/07/02 00:11:40;;;;;;;3.22;2.22;;;16.00;74.50;;;;;;5094939;28;20019;-39
2022/07/02 00:14:07;;;;;;;3.63;2.45;;;16.00;74.60;;;;;;5095951;28;20039;-39
2022/07/02 00:16:33;;;;;;;4.40;2.35;;;16.00;74.80;;;;;;5095987;28;20082;-40
2022/07/02 00:18:59;;;;;;;3.80;2.47;;;16.00;74.80;;;;;;5095847;28;20032;-38
2022/07/02 00:21:25;;;;;;;2.72;2.08;;;15.90;74.80;;;;;;5095471;28;20039;-39
2022/07/02 00:23:51;;;;;;;5.57;2.78;;;15.90;74.80;;;;;;5094931;28;20074;-40
2022/07/02 00:26:24;;;;;;;3.67;2.20;;;15.90;74.90;;;;;;5096294;28;20031;-40
2022/07/02 00:28:55;;;;;;;4.45;2.22;;;15.90;75.00;;;;;;5095998;28;20470;-40
2022/07/02 00:31:21;;;;;;;4.00;2.30;;;15.80;75.00;;;;;;5095598;28;20473;-40
2022/07/02 00:33:49;;;;;;;3.20;2.28;;;15.80;75.00;;;;;;5095599;28;20024;-38
2022/07/02 00:36:21;;;;;;;2.50;2.10;;;15.80;75.00;;;;;;5095467;28;20024;-40
2022/07/02 00:38:48;;;;;;;2.88;2.13;;;15.80;75.00;;;;;;5094220;28;20028;-40
2022/07/02 00:41:15;;;;;;;3.08;2.33;;;15.80;75.00;;;;;;5095479;28;20048;-40
2022/07/02 00:43:42;;;;;;;4.40;2.08;;;15.80;75.60;;;;;;5095676;28;20415;-43
2022/07/02 00:46:08;;;;;;;3.63;2.53;;;15.80;75.10;;;;;;5095985;28;20100;-39
2022/07/02 00:48:35;;;;;;;2.10;1.85;;;15.80;75.00;;;;;;5095805;28;20090;-39
2022/07/02 00:51:00;;;;;;;4.03;2.00;;;15.80;75.10;;;;;;5095204;28;20043;-40
2022/07/02 00:53:26;;;;;;;4.47;2.38;;;15.70;75.10;;;;;;5095461;28;20024;-40
2022/07/02 00:55:58;;;;;;;5.50;2.35;;;15.70;75.10;;;;;;5095138;28;20422;-38
2022/07/02 00:58:25;;;;;;;4.80;2.42;;;15.70;75.30;;;;;;5095142;28;20059;-39
2022/07/02 01:00:50;;;;;;;3.28;2.50;;;15.60;75.30;;;;;;5095042;28;20051;-40
2022/07/02 01:03:18;;;;;;;3.58;2.13;;;15.60;75.40;;;;;;5095050;28;20063;-39
2022/07/02 01:05:45;;;;;;;3.67;2.47;;;15.60;75.40;;;;;;5095009;28;20039;-39
2022/07/02 01:11:00;;;;;;;2.78;2.30;;;15.60;76.10;;;;;;5094957;28;20085;-39
2022/07/02 01:13:26;;;;;;;2.97;2.25;;;15.60;75.50;;;;;;5094755;28;20444;-40
2022/07/02 01:15:52;;;;;;;3.30;2.47;;;15.50;75.50;;;;;;5094849;28;20543;-38
2022/07/02 01:18:17;;;;;;;2.35;1.95;;;15.50;75.60;;;;;;5094701;28;20099;-39
2022/07/02 01:20:46;;;;;;;5.20;2.22;;;15.40;75.60;;;;;;5094615;28;20051;-40
2022/07/02 01:23:12;;;;;;;4.82;2.40;;;15.40;75.70;;;;;;5095123;28;20073;-38
2022/07/02 01:25:37;;;;;;;2.80;2.20;;;15.40;75.80;;;;;;5094510;28;20417;-39
2022/07/02 01:28:03;;;;;;;3.38;2.35;;;15.40;75.90;;;;;;5094640;28;20030;-38
2022/07/02 01:30:29;;;;;;;3.20;2.38;;;15.40;76.00;;;;;;5094698;28;20070;-39
2022/07/02 01:32:55;;;;;;;3.90;2.30;;;15.30;76.10;;;;;;5094175;28;20077;-39
2022/07/02 01:35:20;;;;;;;4.13;2.70;;;15.30;76.30;;;;;;5094256;28;20519;-47
2022/07/02 01:37:46;;;;;;;5.18;2.45;;;15.30;76.30;;;;;;5094339;28;20030;-39
2022/07/02 01:40:12;;;;;;;4.75;2.65;;;15.30;76.30;;;;;;5093080;28;20020;-38
2022/07/02 01:42:38;;;;;;;3.13;2.45;;;15.30;76.50;;;;;;5094381;28;20077;-40
2022/07/02 01:45:04;;;;;;;3.45;2.40;;;15.30;76.50;;;;;;5094441;28;20013;-39
2022/07/02 01:47:30;;;;;;;5.85;3.05;;;15.30;76.50;;;;;;5094296;28;20060;-40
2022/07/02 01:49:55;;;;;;;2.78;2.53;;;15.30;76.60;;;;;;5094311;28;20051;-39
2022/07/02 01:52:21;;;;;;;2.88;2.30;;;15.20;76.70;;;;;;5075899;28;20456;-38
2022/07/02 01:54:46;;;;;;;4.47;3.00;;;15.20;76.70;;;;;;5093930;28;20023;-40
2022/07/02 01:57:15;;;;;;;3.33;2.63;;;15.20;76.70;;;;;;5094187;28;20020;-39
2022/07/02 01:59:41;;;;;;;2.90;2.47;;;15.10;76.70;;;;;;5094122;28;20467;-39
2022/07/02 02:02:06;;;;;;;4.05;2.40;;;15.10;76.80;;;;;;5094122;28;20073;-40
2022/07/02 02:04:33;;;;;;;2.90;2.47;;;15.10;76.80;;;;;;5094021;28;20054;-38
2022/07/02 02:07:00;;;;;;;3.45;2.75;;;15.10;76.80;;;;;;5093687;28;20532;-39
2022/07/02 02:09:25;;;;;;;5.30;2.63;;;15.10;76.90;;;;;;5093918;28;20069;-40
2022/07/02 02:11:51;;;;;;;3.95;2.47;;;15.10;76.90;;;;;;5094008;28;20372;-40
2022/07/02 02:14:17;;;;;;;3.65;2.40;;;15.10;76.90;;;;;;5094005;28;20039;-39
2022/07/02 02:16:42;;;;;;;4.75;2.38;;;15.10;76.90;;;;;;5092715;28;20050;-40
2022/07/02 02:19:08;;;;;;;3.28;2.47;;;15.00;76.90;;;;;;5092409;28;20055;-40
2022/07/02 02:21:34;;;;;;;3.10;2.60;;;15.00;77.00;;;;;;5092328;28;20493;-40
2022/07/02 02:24:00;;;;;;;6.78;3.03;;;15.00;77.10;;;;;;5093288;28;20039;-38
2022/07/02 02:26:26;;;;;;;2.78;2.35;;;14.90;77.10;;;;;;5093595;28;20107;-38
2022/07/02 02:28:52;;;;;;;3.55;2.85;;;14.90;77.20;;;;;;5093376;28;20415;-38
2022/07/02 02:31:18;;;;;;;5.82;2.78;;;14.90;77.30;;;;;;5093392;28;20054;-39
2022/07/02 02:33:43;;;;;;;4.97;2.70;;;14.80;77.30;;;;;;5093418;28;20081;-40
2022/07/02 02:36:09;;;;;;;3.13;2.47;;;14.90;77.40;;;;;;5093221;28;20480;-39
2022/07/02 02:38:36;;;;;;;3.88;2.60;;;14.90;77.40;;;;;;5093233;28;20103;-38
2022/07/02 02:41:06;;;;;;;4.20;2.25;;;14.80;77.40;;;;;;5093155;28;20118;-39
2022/07/02 02:43:36;;;;;;;4.10;2.63;;;14.80;77.50;;;;;;5093352;28;20028;-39
2022/07/02 02:46:02;;;;;;;5.07;2.70;;;14.80;77.50;;;;;;5092359;28;20024;-40
2022/07/02 02:48:28;;;;;;;2.75;2.40;;;14.70;77.50;;;;;;5093100;28;20137;-40
2022/07/02 02:50:54;;;;;;;4.28;2.60;;;14.80;77.50;;;;;;5093351;28;20392;-40
2022/07/02 02:53:20;;;;;;;4.53;2.50;;;14.70;78.10;;;;;;5093063;28;20112;-40
2022/07/02 02:55:45;;;;;;;6.70;2.75;;;14.70;77.60;;;;;;5093066;28;20031;-40
2022/07/02 02:58:11;;;;;;;3.95;2.47;;;14.70;77.70;;;;;;5093054;28;20033;-41
2022/07/02 03:00:36;;;;;;;5.03;2.53;;;14.70;77.80;;;;;;5093277;28;20032;-40
2022/07/02 03:03:02;;;;;;;3.33;2.63;;;14.60;77.90;;;;;;5092836;28;20488;-38
2022/07/02 03:05:27;;;;;;;3.45;2.58;;;14.60;78.00;;;;;;5091655;28;20050;-39
2022/07/02 03:07:53;;;;;;;5.78;2.60;;;14.70;78.60;;;;;;5093244;28;20024;-38
2022/07/02 03:10:19;;;;;;;3.03;2.42;;;14.60;77.90;;;;;;5092919;28;20037;-38
2022/07/02 03:12:44;;;;;;;3.95;2.65;;;14.60;77.90;;;;;;5092985;28;20028;-39
2022/07/02 03:15:10;;;;;;;5.32;2.70;;;14.60;77.90;;;;;;5092832;28;20107;-40
2022/07/02 03:17:36;;;;;;;2.67;2.47;;;14.60;77.90;;;;;;5093173;28;20024;-38
2022/07/02 03:20:02;;;;;;;3.67;2.60;;;14.60;78.00;;;;;;5093079;28;20440;-38
2022/07/02 03:22:28;;;;;;;5.20;2.78;;;14.60;78.00;;;;;;5093000;28;20467;-39
2022/07/02 03:24:53;;;;;;;3.67;2.63;;;14.60;77.90;;;;;;5092919;28;20036;-37
2022/07/02 03:27:19;;;;;;;4.45;2.90;;;14.60;78.00;;;;;;5093067;28;20364;-39
2022/07/02 03:29:45;;;;;;;3.13;2.50;;;14.60;78.00;;;;;;5093027;28;20027;-39
2022/07/02 03:32:11;;;;;;;3.15;2.60;;;14.60;78.10;;;;;;5092846;28;20468;-38
2022/07/02 03:34:36;;;;;;;6.47;2.65;;;14.60;78.20;;;;;;5092612;28;20157;-39
2022/07/02 03:37:03;;;;;;;5.13;2.70;;;14.60;78.20;;;;;;5092580;28;20028;-39
2022/07/02 03:39:29;;;;;;;3.80;2.85;;;14.60;78.20;;;;;;5092904;28;20020;-39
2022/07/02 03:41:54;;;;;;;4.50;2.92;;;14.60;78.20;;;;;;5092648;28;20086;-37
2022/07/02 03:44:20;;;;;;;3.38;2.75;;;14.60;78.20;;;;;;5092748;28;20467;-50
2022/07/02 03:46:45;;;;;;;3.28;2.70;;;14.70;78.30;;;;;;5092967;28;20107;-39
2022/07/02 03:49:11;;;;;;;2.92;2.58;;;14.70;78.20;;;;;;5092687;28;20017;-38
2022/07/02 03:51:36;;;;;;;4.45;2.97;;;14.70;78.10;;;;;;5092515;28;20034;-40
2022/07/02 03:54:02;;;;;;;3.30;2.60;;;14.80;78.00;;;;;;5092768;28;20078;-40
2022/07/02 03:56:28;;;;;;;3.92;2.70;;;14.90;78.00;;;;;;5093418;28;20024;-40
2022/07/02 03:58:54;;;;;;;4.15;2.60;;;14.80;77.90;;;;;;5096438;28;20409;-40
2022/07/02 04:01:19;;;;;;;3.08;2.58;;;14.90;77.90;;;;;;5096755;28;20024;-40
2022/07/02 04:03:45;;;;;;;3.78;2.42;;;14.90;78.00;;;;;;5096070;28;20032;-40
2022/07/02 04:06:10;;;;;;;3.67;2.97;;;14.90;78.00;;;;;;5096045;28;20104;-39
2022/07/02 04:08:36;;;;;;;4.10;2.90;;;14.90;78.00;;;;;;5096163;28;20020;-39
2022/07/02 04:11:01;;;;;;;3.33;2.50;;;14.90;78.10;;;;;;5095959;28;20048;-39
2022/07/02 04:13:27;;;;;;;4.43;2.60;;;14.90;78.10;;;;;;5096040;28;20017;-47
2022/07/02 04:15:53;;;;;;;4.10;2.92;;;14.90;78.20;;;;;;5096161;28;20486;-39
2022/07/02 04:18:19;;;;;;;4.40;2.90;;;14.90;78.20;;;;;;5096061;28;20035;-39
2022/07/02 04:20:44;;;;;;;4.03;2.92;;;14.90;78.10;;;;;;5095883;28;20056;-39
2022/07/02 04:23:10;;;;;;;3.42;2.80;;;14.90;78.10;;;;;;5095655;28;20090;-40
2022/07/02 04:25:37;;;;;;;4.78;3.05;;;15.00;78.20;;;;;;5095782;28;20031;-40
2022/07/02 04:28:03;;;;;;;3.75;3.00;;;15.00;78.10;;;;;;5095907;28;20459;-40
2022/07/02 04:30:28;;;;;;;3.90;2.63;;;15.00;78.20;;;;;;5096016;28;20022;-40
2022/07/02 04:32:54;;;;;;;3.65;3.20;;;15.00;78.20;;;;;;5095829;28;20024;-37
2022/07/02 04:35:20;;;;;;;4.35;3.03;;;15.00;78.10;;;;;;5095848;28;20400;-40
2022/07/02 04:37:45;;;;;;;4.20;2.67;;;15.10;78.10;;;;;;5095544;28;20472;-39
2022/07/02 04:40:11;;;;;;;4.30;3.33;;;15.10;78.00;;;;;;5095361;28;20690;-38
2022/07/02 04:42:37;;;;;;;4.07;3.17;;;15.20;78.00;;;;;;5095564;28;20057;-40
2022/07/02 04:45:03;;;;;;;4.50;2.95;;;15.20;77.90;;;;;;5095340;28;20099;-39
2022/07/02 04:47:28;;;;;;;4.20;3.40;;;15.30;77.90;;;;;;5095298;28;20047;-39
2022/07/02 04:49:54;;;;;;;3.38;3.00;;;15.30;77.70;;;;;;5095526;28;20201;-39
2022/07/02 04:52:19;;;;;;;4.38;2.97;;;15.40;77.60;;;;;;5095412;28;20028;-39
2022/07/02 04:54:45;;;;;;;4.53;2.95;;;15.50;77.50;;;;;;5095655;28;20081;-40
2022/07/02 04:57:10;;;;;;;5.95;2.95;;;15.60;77.30;;;;;;5095032;28;20464;-40
2022/07/02 04:59:36;;;;;;;4.25;2.75;;;15.80;77.10;;;;;;5094957;28;20016;-44
2022/07/02 05:02:02;;;;;;;5.95;3.22;;;15.80;76.70;;;;;;5094854;28;20099;-40
2022/07/02 05:04:27;;;;;;;3.15;2.85;;;15.90;77.20;;;;;;5094839;28;20020;-40
2022/07/02 05:06:53;;;;;;;4.35;2.90;;;16.00;76.40;;;;;;5094862;28;20028;-55
2022/07/02 05:09:18;;;;;;;5.53;2.75;;;16.00;76.20;;;;;;5093080;28;20016;-38
2022/07/02 05:11:44;;;;;;;3.88;2.85;;;16.10;76.00;;;;;;5093458;28;20027;-40
2022/07/02 05:14:10;;;;;;;7.22;3.63;;;16.10;75.80;;;;;;5094749;28;20026;-40
2022/07/02 05:16:35;;;;;;;4.20;2.70;;;16.10;75.60;;;;;;5094772;28;20032;-40
2022/07/02 05:19:01;;;;;;;6.47;2.42;;;16.20;75.50;;;;;;5094605;28;20069;-40
2022/07/02 05:21:27;;;;;;;5.85;2.70;;;16.30;75.30;;;;;;5094677;28;20027;-40
2022/07/02 05:23:52;;;;;;;4.90;2.83;;;16.40;75.10;;;;;;5094506;28;20422;-38
2022/07/02 05:26:19;;;;;;;4.53;2.60;;;16.50;74.80;;;;;;5094431;28;20019;-40
2022/07/02 05:28:45;;;;;;;4.05;2.40;;;16.60;74.50;;;;;;5094818;28;20016;-39
2022/07/02 05:31:10;;;;;;;6.38;2.58;;;16.70;74.10;;;;;;5093143;28;20068;-38
2022/07/02 05:33:36;;;;;;;5.95;2.50;;;16.80;74.00;;;;;;5092998;28;20020;-39
2022/07/02 05:36:01;;;;;;;3.58;2.30;;;16.80;73.80;;;;;;5094556;28;20078;-47
2022/07/02 05:38:27;;;;;;;3.28;2.40;;;16.90;73.70;;;;;;5093585;28;20050;-39
2022/07/02 05:40:53;;;;;;;3.72;2.10;;;17.00;73.50;;;;;;5094458;28;20062;-38
2022/07/02 05:43:18;;;;;;;3.10;2.20;;;17.00;73.10;;;;;;5094114;28;20070;-39
2022/07/02 05:45:44;;;;;;;3.60;1.98;;;17.20;72.80;;;;;;5094276;28;20031;-39
2022/07/02 05:48:10;;;;;;;3.72;2.33;;;17.20;72.60;;;;;;5093956;28;20023;-40
2022/07/02 05:50:35;;;;;;;4.32;2.10;;;17.30;72.40;;;;;;5093948;28;20468;-38
2022/07/02 05:53:01;;;;;;;3.20;2.28;;;17.40;72.10;;;;;;5093972;28;20026;-39
2022/07/02 05:55:27;;;;;;;2.58;1.95;;;17.40;71.90;;;;;;5093988;28;20031;-46
2022/07/02 05:57:52;;;;;;;4.18;2.38;;;17.50;71.60;;;;;;5093779;28;20028;-40
2022/07/02 06:00:18;;;;;;;4.80;1.92;;;17.40;71.40;;;;;;5092609;28;20035;-39
2022/07/02 06:02:43;;;;;;;2.28;1.80;;;17.40;71.30;;;;;;5092440;28;20028;-44
2022/07/02 06:07:53;;;;;;;2.33;1.40;;;17.40;71.20;;;;;;5094053;28;20501;-38
2022/07/02 06:10:19;;;;;;;3.13;1.85;;;17.40;70.90;;;;;;5094010;28;20028;-51
2022/07/02 06:12:50;;;;;;;2.28;1.40;;;17.40;70.60;;;;;;5093628;28;20055;-41
2022/07/02 06:15:19;;;;;;;2.45;1.63;;;17.50;70.50;;;;;;5093906;28;20066;-43
2022/07/02 06:17:46;;;;;;;3.13;1.67;;;17.50;70.10;;;;;;5093634;28;20085;-44
2022/07/02 06:20:13;;;;;;;2.05;1.38;;;17.50;70.10;;;;;;5092452;28;20071;-39
2022/07/02 06:22:39;;;;;;;4.57;1.50;;;17.60;70.00;;;;;;5093371;28;20050;-39
2022/07/02 06:25:06;;;;;;;3.42;1.33;;;17.60;69.80;;;;;;5093368;28;20034;-39
2022/07/02 06:27:34;;;;;;;3.58;1.60;;;17.70;69.60;;;;;;5093493;28;20024;-39
2022/07/02 06:30:04;;;;;;;2.58;1.35;;;17.70;69.30;;;;;;5093353;28;20024;-38
2022/07/02 06:32:30;;;;;;;2.65;1.30;;;17.80;69.00;;;;;;5093190;28;20028;-39
2022/07/02 06:34:56;;;;;;;3.67;1.23;;;17.80;68.90;;;;;;5093150;28;20024;-38
2022/07/02 06:37:22;;;;;;;3.97;1.33;;;17.80;68.60;;;;;;5093464;28;20396;-39
2022/07/02 06:39:49;;;;;;;2.53;1.00;;;17.90;68.50;;;;;;5094060;28;20040;-41
2022/07/02 06:42:22;;;;;;;2.10;1.20;;;17.90;68.20;;;;;;5093021;28;20075;-44
2022/07/02 06:44:51;;;;;;;;;;;18.00;68.00;;;;;;5093998;28;20467;-40
2022/07/02 06:47:18;;;;;;;1.75;1.08;;;18.10;68.00;;;;;;5093266;28;19904;-40
2022/07/02 06:49:44;;;;;;;2.60;1.20;;;18.10;67.50;;;;;;5093105;28;20024;-39
2022/07/02 06:52:10;;;;;;;4.00;1.30;;;18.10;67.10;;;;;;5092944;28;20070;-39
2022/07/02 06:54:36;;;;;;;2.03;1.15;;;18.20;66.60;;;;;;5092951;28;20077;-39
2022/07/02 06:57:02;;;;;;;3.50;1.10;;;18.20;66.20;;;;;;5093098;28;20498;-39
2022/07/02 06:59:28;;;;;;;4.20;1.05;;;18.20;66.20;;;;;;5092990;28;20036;-39
2022/07/02 07:01:53;;;;;;;2.33;1.02;;;18.10;66.00;;;;;;5092982;28;20028;-37
2022/07/02 07:04:19;;;;;;;2.17;0.80;;;18.10;66.00;;;;;;5092865;28;20035;-40
2022/07/02 07:06:47;;;;;;;1.92;0.77;;;18.20;66.10;;;;;;5093087;28;20024;-39
2022/07/02 07:09:13;;;;;;;1.00;0.90;;;18.20;65.90;;;;;;5093040;28;20034;-40
2022/07/02 07:11:39;;;;;;;0.93;0.90;;;18.20;65.70;;;;;;5092979;28;20535;-43
2022/07/02 07:14:05;;;;;;;3.20;1.00;;;18.20;65.30;;;;;;5093155;28;20032;-38
2022/07/02 07:16:30;;;;;;;2.03;0.60;;;18.20;65.30;;;;;;5092807;28;20383;-39
2022/07/02 07:19:05;;;;;;;1.52;0.80;;;18.30;65.20;;;;;;5092822;28;20123;-38
2022/07/02 07:21:31;;;;;;;1.95;1.00;;;18.30;64.80;;;;;;5093037;28;20020;-46
2022/07/02 07:23:57;;;;;;;2.63;0.70;;;18.30;64.20;;;;;;5092677;28;20028;-39
2022/07/02 07:26:22;;;;;;;1.83;0.68;;;18.30;64.00;;;;;;5092718;28;20023;-39
2022/07/02 07:28:48;;;;;;;2.70;0.60;;;18.40;63.80;;;;;;5092782;28;20051;-39
2022/07/02 07:31:16;;;;;;;2.13;0.70;;;18.50;63.50;;;;;;5093148;28;20035;-39
2022/07/02 07:33:41;;;;;;;0.73;0.38;;;18.50;63.20;;;;;;5096943;28;20012;-40
2022/07/02 07:36:07;;;;;;;1.30;0.70;;;18.50;62.90;;;;;;5096628;28;20028;-39
2022/07/02 07:38:32;;;;;;;0.90;0.57;;;18.60;62.60;;;;;;5096614;28;20032;-39
2022/07/02 07:40:58;;;;;;;1.40;0.55;;;18.60;62.40;;;;;;5096470;28;20052;-38
2022/07/02 07:43:23;;;;;;;1.70;0.70;;;18.60;62.30;;;;;;5096704;28;20031;-39
2022/07/02 07:45:49;;;;;;;1.63;0.57;;;18.60;62.00;;;;;;5096959;28;20455;-40
2022/07/02 07:48:14;;;;;;;1.05;0.40;;;18.70;61.70;;;;;;5096639;28;20016;-39
2022/07/02 07:50:40;;;;;;;1.23;0.60;;;18.70;61.20;;;;;;5096430;28;20107;-40
2022/07/02 07:53:06;;;;;;;2.30;0.52;;;18.70;60.60;;;;;;5096589;28;20020;-40
2022/07/02 07:55:31;;;;;;;0.38;0.30;;;18.80;60.50;;;;;;5096784;28;20020;-39
2022/07/02 07:57:57;;;;;;;1.42;0.50;;;18.80;60.00;;;;;;5096375;28;20486;-40
2022/07/02 08:00:23;;;;;;;1.55;0.38;;;18.90;59.90;;;;;;5096250;28;20425;-41
2022/07/02 08:02:49;;;;;;;4.32;0.50;;;19.00;59.90;;;;;;5096075;28;20135;-39
2022/07/02 08:05:15;;;;;;;1.50;0.50;;;19.00;59.70;;;;;;5096113;28;20463;-45
2022/07/02 08:07:41;;;;;;;0.85;0.40;;;19.00;59.60;;;;;;5095878;28;20024;-41
2022/07/02 08:10:08;;;;;;;1.65;0.50;;;19.10;59.60;;;;;;5096100;28;20340;-41
2022/07/02 08:12:34;;;;;;;1.58;0.70;;;19.10;59.30;;;;;;5096069;28;20344;-39
2022/07/02 08:15:00;;;;;;;2.08;0.52;;;19.20;59.20;;;;;;5096196;28;20016;-39
2022/07/02 08:17:26;;;;;;;1.13;0.60;;;19.20;59.10;;;;;;5096205;28;20096;-40
2022/07/02 08:19:52;;;;;;;1.02;0.55;;;19.30;58.90;;;;;;5096093;28;20032;-41
2022/07/02 08:22:19;;;;;;;1.58;0.77;;;19.40;58.90;;;;;;5095768;28;20412;-41
2022/07/02 08:24:45;;;;;;;1.42;0.70;;;19.40;58.80;;;;;;5095886;28;20130;-39
2022/07/02 08:27:11;;;;;;;2.58;0.52;;;19.50;58.80;;;;;;5095666;28;20466;-42
2022/07/02 08:29:36;;;;;;;0.93;0.40;;;19.50;58.80;;;;;;5095797;28;20024;-40
2022/07/02 08:32:04;;;;;;;1.33;0.60;;;19.50;58.80;;;;;;5095521;28;20383;-41
2022/07/02 08:34:30;;;;;;;0.93;0.60;;;19.60;58.80;;;;;;5095703;28;20024;-40
2022/07/02 08:36:56;;;;;;;0.52;0.45;;;19.60;58.70;;;;;;5095396;28;20016;-39
2022/07/02 08:39:22;;;;;;;1.35;0.60;;;19.70;58.80;;;;;;5095517;28;20039;-40
2022/07/02 08:41:49;;;;;;;0.55;0.50;;;19.70;58.70;;;;;;5093878;28;20083;-40
2022/07/02 08:44:16;;;;;;;2.30;0.70;;;19.80;58.70;;;;;;5094616;28;20123;-39
2022/07/02 08:46:43;;;;;;;2.17;0.60;;;19.80;58.60;;;;;;5095301;28;20024;-39
2022/07/02 08:49:10;;;;;;;0.63;0.52;;;19.90;58.60;;;;;;5093940;28;20122;-40
2022/07/02 08:51:36;;;;;;;0.70;0.50;;;19.90;58.60;;;;;;5093913;28;20027;-40
2022/07/02 08:54:02;;;;;;;1.15;0.73;;;20.00;58.30;;;;;;5095194;28;20028;-44
2022/07/02 08:56:31;;;;;;;1.48;0.77;;;20.10;58.30;;;;;;5095356;28;20052;-43
2022/07/02 08:58:57;;;;;;;2.35;0.70;;;20.10;58.20;;;;;;5095085;28;20031;-43
2022/07/02 09:01:24;;;;;;;0.73;0.55;;;20.20;58.20;;;;;;5095361;28;20023;-43
2022/07/02 09:03:52;;;;;;;1.60;0.65;;;20.30;57.90;;;;;;5094970;28;20447;-41
2022/07/02 09:06:19;;;;;;;0.95;0.80;;;20.40;57.80;;;;;;5095293;28;20024;-39
2022/07/02 09:08:45;;;;;;;2.13;0.85;;;20.50;57.60;;;;;;5095206;28;20024;-41
2022/07/02 09:11:11;;;;;;;2.00;0.80;;;20.50;57.50;;;;;;5094830;28;20028;-46
2022/07/02 09:13:39;;;;;;;2.35;0.57;;;20.50;57.90;;;;;;5095312;28;20028;-40
2022/07/02 09:16:05;;;;;;;1.33;0.90;;;20.60;57.30;;;;;;5094939;28;20032;-40
2022/07/02 09:18:31;;;;;;;1.05;0.70;;;20.60;57.20;;;;;;5095104;28;20020;-40
2022/07/02 09:20:57;;;;;;;3.38;0.80;;;20.70;57.20;;;;;;5094704;28;20030;-39
2022/07/02 09:23:23;;;;;;;3.72;0.90;;;20.80;56.90;;;;;;5094540;28;20022;-39
2022/07/02 09:25:50;;;;;;;1.58;0.60;;;21.00;56.70;;;;;;5094830;28;20050;-41
2022/07/02 09:28:17;;;;;;;1.80;0.73;;;21.10;56.50;;;;;;5094555;28;20057;-40
2022/07/02 09:30:44;;;;;;;2.50;0.70;;;21.30;56.40;;;;;;5093306;28;20103;-40
2022/07/02 09:33:31;;;;;;;0.90;0.70;;;21.40;56.10;;;;;;5094728;28;20479;-40
2022/07/02 09:36:00;;;;;;;2.30;0.70;;;21.50;55.80;;;;;;5094695;28;20024;-41
2022/07/02 09:38:26;;;;;;;1.92;0.57;;;21.60;55.50;;;;;;5094297;28;20020;-41
2022/07/02 09:40:54;;;;;;;2.05;0.80;;;21.60;55.30;;;;;;5094171;28;20044;-40
2022/07/02 09:43:27;;;;;;;2.20;0.68;;;21.60;55.20;;;;;;5094304;28;20032;-40
2022/07/02 09:45:54;;;;;;;1.05;0.80;;;21.50;54.90;;;;;;5094187;28;20016;-39
2022/07/02 09:48:20;;;;;;;2.08;0.70;;;21.50;55.10;;;;;;5094567;28;20024;-40
2022/07/02 09:50:45;;;;;;;1.48;0.57;;;21.50;55.10;;;;;;5094531;28;20016;-39
2022/07/02 09:53:12;;;;;;;2.15;0.52;;;21.50;55.20;;;;;;5094107;28;20051;-40
2022/07/02 09:55:38;;;;;;;2.22;0.60;;;21.60;55.20;;;;;;5093806;28;20017;-40
2022/07/02 09:58:04;;;;;;;1.10;1.00;;;21.70;55.00;;;;;;5093808;28;20031;-45
2022/07/02 10:00:41;;;;;;;2.00;0.73;;;21.80;54.80;;;;;;5094146;28;20016;-40
2022/07/02 10:03:07;;;;;;;0.60;0.50;;;21.90;54.60;;;;;;5093999;28;20028;-40
2022/07/02 10:05:33;;;;;;;1.13;0.63;;;22.00;54.70;;;;;;5093875;28;20099;-48
2022/07/02 10:08:01;;;;;;;2.05;0.60;;;22.00;54.60;;;;;;5094136;28;20028;-39
2022/07/02 10:10:38;;;;;;;3.45;0.85;;;22.10;54.40;;;;;;5092578;28;20039;-39
2022/07/02 10:13:08;;;;;;;4.65;0.70;;;22.30;54.30;;;;;;5093354;28;20020;-40
2022/07/02 10:15:38;;;;;;;1.65;0.77;;;22.40;54.30;;;;;;5093830;28;20023;-40
2022/07/02 10:18:05;;;;;;;2.55;0.68;;;22.50;53.90;;;;;;5093737;28;20034;-40
2022/07/02 10:20:32;;;;;;;0.82;0.40;;;22.70;53.50;;;;;;5093769;28;20091;-40
2022/07/02 10:23:04;;;;;;;1.48;0.68;;;22.80;53.20;;;;;;5093580;28;20027;-40
2022/07/02 10:25:30;;;;;;;2.17;0.80;;;22.80;52.70;;;;;;5093632;28;20073;-40
2022/07/02 10:27:56;;;;;;;2.88;0.95;;;22.80;52.70;;;;;;5093649;28;20023;-39
2022/07/02 10:30:33;;;;;;;2.70;0.73;;;22.80;52.40;;;;;;5093570;28;20028;-38
2022/07/02 10:33:12;;;;;;;1.92;0.70;;;22.90;52.40;;;;;;5093452;28;20494;-39
2022/07/02 10:35:38;;;;;;;1.63;0.70;;;23.00;52.10;;;;;;5093303;28;20024;-41
2022/07/02 10:38:05;;;;;;;1.13;0.52;;;23.10;51.90;;;;;;5093482;28;20016;-40
2022/07/02 10:40:31;;;;;;;0.77;0.50;;;23.10;51.80;;;;;;5092975;28;20487;-41
2022/07/02 10:42:59;;;;;;;1.85;0.70;;;23.00;51.80;;;;;;5093020;28;20031;-38
2022/07/02 10:45:25;;;;;;;2.00;0.70;;;23.00;51.80;;;;;;5093457;28;20027;-40
2022/07/02 10:47:56;;;;;;;1.00;0.73;;;23.10;51.50;;;;;;5093147;28;20024;-40
2022/07/02 10:50:38;;;;;;;1.08;0.55;;;23.20;51.20;;;;;;5093439;28;20095;-40
2022/07/02 10:53:21;;;;;;;2.67;0.80;;;23.20;51.10;;;;;;5093367;28;20036;-39
2022/07/02 10:55:58;;;;;;;1.23;0.65;;;23.30;51.10;;;;;;5092981;28;20085;-40
2022/07/02 10:58:26;;;;;;;1.00;0.60;;;23.40;51.10;;;;;;5092877;28;20020;-39
2022/07/02 11:00:52;;;;;;;1.33;0.60;;;23.50;51.00;;;;;;5092912;28;20024;-40
2022/07/02 11:03:25;;;;;;;2.08;0.60;;;23.60;50.80;;;;;;5092890;28;20499;-40
2022/07/02 11:05:59;;;;;;;;;;;23.80;50.40;;;;;;5093316;28;20098;-40
2022/07/02 11:08:28;;;;;;;;;;;23.80;50.60;;;;;;5093516;28;19922;-41
2022/07/02 11:10:53;;;;;;;1.48;0.50;;;23.90;50.60;;;;;;5092661;28;19928;-37
2022/07/02 11:13:19;;;;;;;1.08;0.80;;;23.90;50.20;;;;;;5093198;28;20028;-40
2022/07/02 11:15:45;;;;;;;0.68;0.47;;;24.10;49.90;;;;;;5093028;28;20089;-50
2022/07/02 11:18:13;;;;;;;1.65;0.60;;;24.20;49.60;;;;;;5093054;28;20430;-38
2022/07/02 11:20:39;;;;;;;1.15;0.50;;;24.20;49.20;;;;;;5092788;28;20387;-40
2022/07/02 11:23:05;;;;;;;1.48;0.57;;;24.20;49.00;;;;;;5093109;28;20056;-40
2022/07/02 11:25:31;;;;;;;1.42;0.60;;;24.00;48.90;;;;;;5092982;28;20043;-40
2022/07/02 11:27:58;;;;;;;1.45;0.70;;;24.00;48.90;;;;;;5092703;28;20463;-40
2022/07/02 11:30:31;;;;;;;1.20;0.60;;;23.90;48.90;;;;;;5092933;28;20388;-41
2022/07/02 11:32:57;;;;;;;0.85;0.52;;;23.90;48.60;;;;;;5092852;28;20024;-39
2022/07/02 11:35:23;;;;;;;2.05;0.63;;;23.90;48.50;;;;;;5092625;28;20101;-40
2022/07/02 11:37:54;;;;;;;1.48;0.57;;;23.90;48.30;;;;;;5092684;28;20054;-40
2022/07/02 11:40:21;;;;;;;2.42;0.60;;;23.90;48.40;;;;;;5092596;28;20035;-40
2022/07/02 11:42:47;;;;;;;0.88;0.68;;;23.90;48.50;;;;;;5092733;28;20112;-40
2022/07/02 11:45:13;;;;;;;3.38;0.60;;;24.00;49.20;;;;;;5092537;28;20476;-40
2022/07/02 11:47:49;;;;;;;2.63;0.90;;;24.10;48.50;;;;;;5092613;28;20020;-40
2022/07/02 11:50:29;;;;;;;1.60;0.45;;;24.10;48.20;;;;;;5092407;28;20090;-41
2022/07/02 11:52:54;;;;;;;1.08;0.68;;;24.30;48.30;;;;;;5092389;28;20414;-39
2022/07/02 11:55:20;;;;;;;1.95;0.98;;;24.50;48.30;;;;;;5092402;28;20030;-39
2022/07/02 11:57:46;;;;;;;0.50;0.50;;;24.60;48.00;;;;;;5092800;28;20028;-39
2022/07/02 12:00:12;;;;;;;2.22;0.80;;;24.80;47.90;;;;;;5092849;28;20021;-40
2022/07/02 12:02:41;;;;;;;1.60;0.90;;;25.00;48.00;;;;;;5093363;28;20486;-41
2022/07/02 12:05:19;;;;;;;1.90;0.70;;;24.90;47.00;;;;;;5092289;28;20020;-40
2022/07/02 12:07:46;;;;;;;5.32;1.05;;;24.80;47.00;;;;;;5092269;28;20054;-41
2022/07/02 12:10:15;;;;;;;1.63;0.70;;;24.70;47.30;;;;;;5092365;28;20055;-41
2022/07/02 12:12:41;;;;;;;0.70;0.60;;;24.60;47.20;;;;;;5093181;28;20418;-41
2022/07/02 12:15:08;;;;;;;2.30;0.85;;;24.60;47.20;;;;;;5092346;28;20013;-49
2022/07/02 12:17:35;;;;;;;1.63;0.63;;;24.70;47.10;;;;;;5092696;28;20379;-42
2022/07/02 12:20:03;;;;;;;2.13;0.70;;;24.70;47.00;;;;;;5095749;28;20023;-41
2022/07/02 12:22:29;;;;;;;1.55;0.73;;;24.70;47.10;;;;;;5096176;28;20021;-40
2022/07/02 12:24:55;;;;;;;1.02;0.68;;;24.70;47.20;;;;;;5096083;28;20046;-39
2022/07/02 12:27:23;;;;;;;2.47;0.80;;;24.70;47.20;;;;;;5096095;28;20070;-40
2022/07/02 12:29:58;;;;;;;1.15;0.60;;;24.70;47.10;;;;;;5095691;28;20020;-40
2022/07/02 12:32:38;;;;;;;1.08;0.50;;;24.60;47.20;;;;;;5095577;28;20020;-41
2022/07/02 12:35:10;;;;;;;2.30;0.70;;;24.70;48.20;;;;;;5095883;28;20517;-41
2022/07/02 12:37:43;;;;;;;0.95;0.60;;;24.80;47.40;;;;;;5095946;28;20426;-41
2022/07/02 12:40:12;;;;;;;1.38;0.80;;;25.00;47.00;;;;;;5095673;28;20419;-39
2022/07/02 12:42:54;;;;;;;1.13;0.70;;;25.00;46.90;;;;;;5095512;28;20024;-45
2022/07/02 12:45:34;;;;;;;1.30;0.50;;;25.10;47.00;;;;;;5095723;28;20172;-40
2022/07/02 12:48:02;;;;;;;1.00;0.63;;;25.20;47.00;;;;;;5095880;28;20020;-40
2022/07/02 12:50:30;;;;;;;1.35;0.73;;;25.40;46.80;;;;;;5095237;28;20569;-40
2022/07/02 12:53:00;;;;;;;1.80;0.70;;;25.60;46.60;;;;;;5095529;28;20024;-40